Time;durP1;ratioP1;P1;durP2;ratioP2;P2;SDS_P1;SDS_P2;PMS_P1;PMS_P2;Temp;Humidity;BMP_temperature;BMP_pressure;BME280_temperature;BME280_humidity;BME280_pressure;Samples;Min_cycle;Max_cycle;Signal;HPM_P1;HPM_P2
2022/09/24 00:01:47;;;;;;;8.65;6.90;;;13.10;85.10;;;;;;5070919;28;20547;-64
2022/09/24 00:04:14;;;;;;;7.75;6.93;;;13.10;85.20;;;;;;5071148;28;20194;-64
2022/09/24 00:06:43;;;;;;;8.65;5.97;;;13.10;85.30;;;;;;5070577;28;20189;-63
2022/09/24 00:09:11;;;;;;;7.57;5.57;;;13.20;85.30;;;;;;5070814;28;20246;-62
2022/09/24 00:11:39;;;;;;;6.50;4.80;;;13.20;85.40;;;;;;5071050;28;20201;-63
2022/09/24 00:14:07;;;;;;;6.70;4.97;;;13.20;85.30;;;;;;5070924;28;20648;-62
2022/09/24 00:16:36;;;;;;;6.05;5.20;;;13.20;85.30;;;;;;5070662;28;20189;-63
2022/09/24 00:19:04;;;;;;;6.65;5.15;;;13.20;85.60;;;;;;5070859;28;20328;-62
2022/09/24 00:21:32;;;;;;;7.40;5.85;;;13.10;85.50;;;;;;5070712;28;20190;-62
2022/09/24 00:24:02;;;;;;;8.05;5.43;;;13.10;87.10;;;;;;5070188;28;20290;-63
2022/09/24 00:29:16;;;;;;;6.22;5.40;;;13.10;87.70;;;;;;5068479;28;20185;-63
2022/09/24 00:31:45;;;;;;;10.40;6.15;;;13.10;87.00;;;;;;5070976;28;20189;-64
2022/09/24 00:34:12;;;;;;;6.97;5.35;;;13.10;86.60;;;;;;5071053;28;20201;-63
2022/09/24 00:36:39;;;;;;;7.88;6.43;;;13.00;86.80;;;;;;5069551;28;20247;-62
2022/09/24 00:39:07;;;;;;;6.03;5.22;;;13.00;87.80;;;;;;5070135;28;20189;-63
2022/09/24 00:41:36;;;;;;;7.50;6.03;;;12.90;87.70;;;;;;5070713;28;20228;-62
2022/09/24 00:44:37;;;;;;;9.07;5.07;;;13.00;87.50;;;;;;5070274;28;20648;-63
2022/09/24 00:47:06;;;;;;;8.80;6.18;;;13.00;87.50;;;;;;5071976;28;20197;-63
2022/09/24 00:49:33;;;;;;;8.27;5.88;;;13.00;87.40;;;;;;5065245;28;20200;-63
2022/09/24 00:52:00;;;;;;;7.40;5.85;;;13.00;87.20;;;;;;5074909;28;20243;-63
2022/09/24 00:54:28;;;;;;;7.97;5.47;;;13.10;87.10;;;;;;5074163;28;20232;-62
2022/09/24 00:56:59;;;;;;;11.93;6.10;;;13.10;87.20;;;;;;5074907;28;20194;-62
2022/09/24 00:59:27;;;;;;;5.88;4.20;;;13.00;87.70;;;;;;5074291;28;20255;-62
2022/09/24 01:01:57;;;;;;;7.75;5.22;;;13.00;88.40;;;;;;5075043;28;20208;-62
2022/09/24 01:04:28;;;;;;;8.52;5.70;;;13.00;87.80;;;;;;5074650;28;20268;-63
2022/09/24 01:06:56;;;;;;;6.82;5.20;;;13.00;88.10;;;;;;5074992;28;20198;-63
2022/09/24 01:09:27;;;;;;;6.20;5.60;;;13.00;87.80;;;;;;5073497;28;20235;-63
2022/09/24 01:12:03;;;;;;;7.03;5.03;;;13.00;87.80;;;;;;5074773;28;20285;-63
2022/09/24 01:15:00;;;;;;;7.13;4.88;;;13.00;88.00;;;;;;5073915;28;20197;-63
2022/09/24 01:17:37;;;;;;;5.22;4.22;;;13.00;88.10;;;;;;5068245;28;20624;-63
2022/09/24 01:20:26;;;;;;;5.85;4.93;;;13.10;88.20;;;;;;5073888;28;20604;-62
2022/09/24 01:23:11;;;;;;;5.15;4.60;;;13.10;88.10;;;;;;5072697;28;20193;-63
2022/09/24 01:25:50;;;;;;;4.72;4.15;;;13.10;88.00;;;;;;5074018;28;20641;-63
2022/09/24 01:28:32;;;;;;;5.90;4.47;;;13.10;88.60;;;;;;5071406;28;20197;-63
2022/09/24 01:31:08;;;;;;;7.30;4.13;;;13.10;88.10;;;;;;5074356;28;20617;-62
2022/09/24 01:33:36;;;;;;;6.93;4.40;;;13.10;88.20;;;;;;5073590;28;20194;-62
2022/09/24 01:36:07;;;;;;;7.45;4.13;;;13.10;88.10;;;;;;5074017;28;20629;-62
2022/09/24 01:38:40;;;;;;;7.13;4.50;;;13.00;88.40;;;;;;5073428;28;20177;-62
2022/09/24 01:41:10;;;;;;;4.97;4.40;;;13.00;88.60;;;;;;5074065;28;20580;-63
2022/09/24 01:43:38;;;;;;;4.65;3.70;;;13.00;88.60;;;;;;5073292;28;20620;-63
2022/09/24 01:46:09;;;;;;;6.25;4.00;;;13.00;88.70;;;;;;5074068;28;20194;-63
2022/09/24 01:48:37;;;;;;;4.05;3.45;;;13.00;88.70;;;;;;5073162;28;20225;-62
2022/09/24 01:51:10;;;;;;;4.60;3.65;;;13.00;88.80;;;;;;5073874;28;20205;-62
2022/09/24 01:53:42;;;;;;;5.00;3.95;;;13.10;88.80;;;;;;5073123;28;20189;-63
2022/09/24 01:56:16;;;;;;;5.07;3.10;;;13.00;88.70;;;;;;5074056;28;20726;-63
2022/09/24 01:58:48;;;;;;;8.02;3.97;;;13.00;88.70;;;;;;5072286;28;20247;-63
2022/09/24 02:01:22;;;;;;;5.53;4.28;;;13.00;89.00;;;;;;5073470;28;20232;-63
2022/09/24 02:03:55;;;;;;;7.35;4.55;;;13.00;89.20;;;;;;5070721;28;20194;-63
2022/09/24 02:06:28;;;;;;;5.10;3.97;;;13.00;89.20;;;;;;5071756;28;20205;-63
2022/09/24 02:08:58;;;;;;;7.80;4.22;;;13.00;89.60;;;;;;5070396;28;20648;-63
2022/09/24 02:11:26;;;;;;;4.60;3.60;;;13.10;89.70;;;;;;5072668;28;20539;-63
2022/09/24 02:13:59;;;;;;;4.68;3.38;;;13.10;90.00;;;;;;5072932;28;20233;-63
2022/09/24 02:16:33;;;;;;;3.90;3.17;;;13.10;89.80;;;;;;5073079;28;20193;-63
2022/09/24 02:19:05;;;;;;;4.35;3.88;;;13.00;89.80;;;;;;5072856;28;20230;-63
2022/09/24 02:21:35;;;;;;;4.35;3.70;;;13.00;89.90;;;;;;5073215;28;20229;-62
2022/09/24 02:24:10;;;;;;;7.00;3.72;;;13.00;89.80;;;;;;5072555;28;20197;-63
2022/09/24 02:26:37;;;;;;;5.15;3.47;;;13.10;89.60;;;;;;5073233;28;20862;-63
2022/09/24 02:29:05;;;;;;;9.15;3.97;;;13.10;89.10;;;;;;5071868;28;20198;-64
2022/09/24 02:31:37;;;;;;;4.03;3.22;;;13.10;89.10;;;;;;5070200;28;20687;-63
2022/09/24 02:34:20;;;;;;;4.57;3.65;;;13.10;88.90;;;;;;5072283;28;20251;-62
2022/09/24 02:36:48;;;;;;;6.13;3.25;;;13.20;88.60;;;;;;5072240;28;20189;-65
2022/09/24 02:39:16;;;;;;;4.15;3.55;;;13.30;88.20;;;;;;5073054;28;20284;-63
2022/09/24 02:41:45;;;;;;;4.93;3.83;;;13.30;88.00;;;;;;5071198;28;20225;-63
2022/09/24 02:44:13;;;;;;;4.30;3.55;;;13.40;87.80;;;;;;5072708;28;20530;-63
2022/09/24 02:46:41;;;;;;;5.45;3.10;;;13.30;87.90;;;;;;5072743;28;20221;-62
2022/09/24 02:49:09;;;;;;;4.20;3.15;;;13.40;87.80;;;;;;5072577;28;20230;-63
2022/09/24 02:51:36;;;;;;;4.97;4.03;;;13.40;88.10;;;;;;5071888;28;20198;-63
2022/09/24 02:54:04;;;;;;;5.07;3.78;;;13.40;88.30;;;;;;5072549;28;20283;-62
2022/09/24 02:56:31;;;;;;;7.72;4.13;;;13.50;89.00;;;;;;5072430;28;20205;-63
2022/09/24 02:59:00;;;;;;;5.07;3.65;;;13.50;89.00;;;;;;5071530;28;20224;-62
2022/09/24 03:01:27;;;;;;;5.88;3.63;;;13.50;88.80;;;;;;5070769;28;20695;-64
2022/09/24 03:03:56;;;;;;;4.72;3.03;;;13.50;88.70;;;;;;5072381;28;20278;-64
2022/09/24 03:06:23;;;;;;;5.35;3.63;;;13.50;89.20;;;;;;5072318;28;20981;-64
2022/09/24 03:08:52;;;;;;;5.80;3.38;;;13.50;89.40;;;;;;5071968;28;20190;-63
2022/09/24 03:11:20;;;;;;;5.05;3.95;;;13.50;88.90;;;;;;5069696;28;20196;-62
2022/09/24 03:13:48;;;;;;;7.93;3.90;;;13.50;89.10;;;;;;5071416;28;20281;-63
2022/09/24 03:16:16;;;;;;;5.00;3.75;;;13.50;89.00;;;;;;5072189;28;20204;-64
2022/09/24 03:18:43;;;;;;;5.28;3.72;;;13.50;89.20;;;;;;5071811;28;20209;-64
2022/09/24 03:21:13;;;;;;;5.50;3.80;;;13.50;89.10;;;;;;5072037;28;20266;-63
2022/09/24 03:23:41;;;;;;;5.65;4.18;;;13.50;89.10;;;;;;5071018;28;20194;-62
2022/09/24 03:26:09;;;;;;;7.15;3.05;;;13.50;89.10;;;;;;5071836;28;20243;-63
2022/09/24 03:28:36;;;;;;;4.13;3.25;;;13.60;89.40;;;;;;5071319;28;20235;-63
2022/09/24 03:31:02;;;;;;;5.47;3.58;;;13.60;88.90;;;;;;5071781;28;20198;-63
2022/09/24 03:33:32;;;;;;;3.83;2.97;;;13.60;88.60;;;;;;5071121;28;20208;-64
2022/09/24 03:36:00;;;;;;;5.60;3.08;;;13.60;88.40;;;;;;5071992;28;20193;-65
2022/09/24 03:38:29;;;;;;;5.20;3.80;;;13.60;89.00;;;;;;5071241;28;20201;-64
2022/09/24 03:40:57;;;;;;;4.15;3.20;;;13.70;89.40;;;;;;5071625;28;20213;-63
2022/09/24 03:43:24;;;;;;;5.43;3.50;;;13.70;89.40;;;;;;5070711;28;20263;-63
2022/09/24 03:45:52;;;;;;;3.67;2.97;;;13.70;89.70;;;;;;5072000;28;20210;-63
2022/09/24 03:48:20;;;;;;;4.45;3.65;;;13.70;90.00;;;;;;5071296;28;20229;-64
2022/09/24 03:50:47;;;;;;;4.47;3.40;;;13.60;90.00;;;;;;5071805;28;20680;-65
2022/09/24 03:53:16;;;;;;;5.97;3.50;;;13.60;90.00;;;;;;5070597;28;20196;-63
2022/09/24 03:55:47;;;;;;;3.97;2.95;;;13.60;90.00;;;;;;5071781;28;20197;-63
2022/09/24 03:58:14;;;;;;;4.00;3.22;;;13.60;89.90;;;;;;5071182;28;20198;-63
2022/09/24 04:00:42;;;;;;;3.78;2.95;;;13.50;90.00;;;;;;5071909;28;20249;-63
2022/09/24 04:03:09;;;;;;;5.55;3.70;;;13.50;90.10;;;;;;5070902;28;20569;-63
2022/09/24 04:05:36;;;;;;;3.58;2.88;;;13.60;90.20;;;;;;5071610;28;20619;-63
2022/09/24 04:08:05;;;;;;;3.50;3.03;;;13.60;90.20;;;;;;5070987;28;20193;-64
2022/09/24 04:10:32;;;;;;;3.92;2.80;;;13.60;90.10;;;;;;5071631;28;20549;-63
2022/09/24 04:13:01;;;;;;;5.75;4.05;;;13.60;90.00;;;;;;5069916;28;20243;-63
2022/09/24 04:15:28;;;;;;;4.20;2.92;;;13.70;90.00;;;;;;5071641;28;20604;-63
2022/09/24 04:17:57;;;;;;;4.57;3.05;;;13.70;89.80;;;;;;5070716;28;20558;-63
2022/09/24 04:20:26;;;;;;;4.35;3.00;;;13.70;89.60;;;;;;5071819;28;20197;-63
2022/09/24 04:22:55;;;;;;;5.40;4.00;;;13.70;89.90;;;;;;5070785;28;20292;-65
2022/09/24 04:25:24;;;;;;;6.20;3.85;;;13.70;90.20;;;;;;5072492;28;20247;-64
2022/09/24 04:27:53;;;;;;;8.05;4.72;;;13.70;90.30;;;;;;5072303;28;20181;-64
2022/09/24 04:30:23;;;;;;;6.20;4.03;;;13.70;90.40;;;;;;5072360;28;20721;-64
2022/09/24 04:32:51;;;;;;;6.35;4.10;;;13.70;90.50;;;;;;5071616;28;20186;-63
2022/09/24 04:35:18;;;;;;;5.15;3.95;;;13.70;90.40;;;;;;5072280;28;20239;-63
2022/09/24 04:37:46;;;;;;;4.53;3.70;;;13.70;90.50;;;;;;5071893;28;20259;-64
2022/09/24 04:40:15;;;;;;;6.07;3.97;;;13.70;90.60;;;;;;5072395;28;20671;-63
2022/09/24 04:42:43;;;;;;;5.57;4.45;;;13.70;90.60;;;;;;5071225;28;20217;-63
2022/09/24 04:45:11;;;;;;;7.78;5.30;;;13.70;90.70;;;;;;5072289;28;20198;-63
2022/09/24 04:47:40;;;;;;;8.88;5.05;;;13.70;90.70;;;;;;5070787;28;20699;-64
2022/09/24 04:50:10;;;;;;;8.50;5.13;;;13.70;91.10;;;;;;5072196;28;20186;-63
2022/09/24 04:52:37;;;;;;;8.57;4.65;;;13.70;90.80;;;;;;5071637;28;20190;-62
2022/09/24 04:55:06;;;;;;;10.02;4.07;;;13.70;90.90;;;;;;5072288;28;20194;-62
2022/09/24 04:57:35;;;;;;;5.93;4.45;;;13.70;90.90;;;;;;5071711;28;20709;-63
2022/09/24 05:00:02;;;;;;;5.05;3.58;;;13.70;90.80;;;;;;5071600;28;20712;-63
2022/09/24 05:02:30;;;;;;;4.18;3.00;;;13.70;90.60;;;;;;5071480;28;20205;-63
2022/09/24 05:04:58;;;;;;;7.45;3.00;;;13.70;90.70;;;;;;5072053;28;20286;-63
2022/09/24 05:07:25;;;;;;;4.30;3.47;;;13.60;90.60;;;;;;5071857;28;20190;-63
2022/09/24 05:09:53;;;;;;;5.07;3.35;;;13.70;90.70;;;;;;5070597;28;20193;-63
2022/09/24 05:12:20;;;;;;;4.03;2.70;;;13.70;90.60;;;;;;5072094;28;20185;-63
2022/09/24 05:14:48;;;;;;;7.75;3.60;;;13.70;90.50;;;;;;5072041;28;20216;-64
2022/09/24 05:17:15;;;;;;;4.50;3.83;;;13.60;90.40;;;;;;5071547;28;20189;-63
2022/09/24 05:19:42;;;;;;;4.97;3.88;;;13.60;90.50;;;;;;5071441;28;20190;-63
2022/09/24 05:22:11;;;;;;;5.40;3.88;;;13.60;90.50;;;;;;5071580;28;20244;-64
2022/09/24 05:24:38;;;;;;;4.57;3.88;;;13.60;90.70;;;;;;5071943;28;20287;-63
2022/09/24 05:27:10;;;;;;;5.88;4.40;;;13.50;90.70;;;;;;5071697;28;20193;-62
2022/09/24 05:29:38;;;;;;;5.75;3.58;;;13.50;90.70;;;;;;5071188;28;20182;-63
2022/09/24 05:32:07;;;;;;;6.05;4.32;;;13.40;90.80;;;;;;5070839;28;20202;-63
2022/09/24 05:34:34;;;;;;;5.25;4.65;;;13.40;91.10;;;;;;5075264;28;20197;-63
2022/09/24 05:37:02;;;;;;;8.48;4.55;;;13.50;91.10;;;;;;5075139;28;20568;-64
2022/09/24 05:39:31;;;;;;;6.55;4.57;;;13.50;91.20;;;;;;5074471;28;20228;-63
2022/09/24 05:41:58;;;;;;;9.43;6.05;;;13.60;91.20;;;;;;5075188;28;20263;-63
2022/09/24 05:44:25;;;;;;;7.30;5.90;;;13.60;91.00;;;;;;5075026;28;20194;-63
2022/09/24 05:46:53;;;;;;;9.35;6.57;;;13.60;91.10;;;;;;5075266;28;20193;-63
2022/09/24 05:49:20;;;;;;;6.15;4.78;;;13.60;91.10;;;;;;5075107;28;20189;-63
2022/09/24 05:51:49;;;;;;;7.05;4.55;;;13.70;91.00;;;;;;5074840;28;20264;-63
2022/09/24 05:54:17;;;;;;;9.85;4.57;;;13.70;91.00;;;;;;5055953;28;20427;-67
2022/09/24 05:56:47;;;;;;;5.45;4.20;;;13.70;90.90;;;;;;5002857;28;20221;-65
2022/09/24 05:59:14;;;;;;;7.05;3.95;;;13.70;90.90;;;;;;5071027;28;20198;-64
2022/09/24 06:01:41;;;;;;;6.53;4.25;;;13.70;90.90;;;;;;5071723;28;20308;-63
2022/09/24 06:04:08;;;;;;;5.95;4.25;;;13.80;91.00;;;;;;5058671;28;20340;-63
2022/09/24 06:06:35;;;;;;;6.88;4.43;;;13.80;90.90;;;;;;5071115;28;20189;-63
2022/09/24 06:09:02;;;;;;;7.32;4.25;;;13.80;90.90;;;;;;5070986;28;20192;-63
2022/09/24 06:11:33;;;;;;;6.45;4.75;;;13.80;90.80;;;;;;5073017;28;20555;-64
2022/09/24 06:14:04;;;;;;;6.30;4.38;;;13.90;90.80;;;;;;5072382;28;20202;-64
2022/09/24 06:16:33;;;;;;;5.93;4.85;;;13.90;90.90;;;;;;5072518;28;20186;-63
2022/09/24 06:19:00;;;;;;;6.43;5.07;;;14.00;90.90;;;;;;5072723;28;20190;-63
2022/09/24 06:21:27;;;;;;;7.40;4.55;;;14.00;91.30;;;;;;5072592;28;20271;-63
2022/09/24 06:23:54;;;;;;;11.23;8.65;;;14.00;90.60;;;;;;5072806;28;20294;-63
2022/09/24 06:26:21;;;;;;;10.68;8.38;;;14.00;90.70;;;;;;5072098;28;20243;-64
2022/09/24 06:28:48;;;;;;;7.75;6.80;;;14.00;90.80;;;;;;5071939;28;20702;-63
2022/09/24 06:31:17;;;;;;;10.13;5.72;;;14.10;90.70;;;;;;5072612;28;20197;-63
2022/09/24 06:33:44;;;;;;;5.50;4.43;;;14.00;90.60;;;;;;5070596;28;20225;-63
2022/09/24 06:36:11;;;;;;;4.60;4.00;;;14.00;90.70;;;;;;5069329;28;20212;-63
2022/09/24 06:38:40;;;;;;;5.32;4.45;;;14.00;90.70;;;;;;5071320;28;20229;-63
2022/09/24 06:41:07;;;;;;;7.95;4.50;;;14.00;90.80;;;;;;5070509;28;20193;-63
2022/09/24 06:43:35;;;;;;;7.97;4.80;;;14.00;91.00;;;;;;5071085;28;20285;-64
2022/09/24 06:46:03;;;;;;;7.50;5.32;;;14.00;90.70;;;;;;5067764;28;20243;-63
2022/09/24 06:48:32;;;;;;;9.00;6.00;;;14.10;90.70;;;;;;5067500;28;20233;-64
2022/09/24 06:50:59;;;;;;;6.55;4.75;;;14.20;90.50;;;;;;5071404;28;20192;-63
2022/09/24 06:53:27;;;;;;;11.63;5.40;;;14.20;90.40;;;;;;5070569;28;20702;-63
2022/09/24 06:55:58;;;;;;;6.35;4.55;;;14.30;90.50;;;;;;5071744;28;20243;-63
2022/09/24 06:58:25;;;;;;;8.85;4.75;;;14.40;90.80;;;;;;5070860;28;20186;-63
2022/09/24 07:00:57;;;;;;;9.45;6.30;;;14.40;90.30;;;;;;5070369;28;20547;-64
2022/09/24 07:03:25;;;;;;;7.75;5.63;;;14.50;90.50;;;;;;5070362;28;20690;-63
2022/09/24 07:05:54;;;;;;;8.03;4.30;;;14.60;90.50;;;;;;5069422;28;20677;-63
2022/09/24 07:08:22;;;;;;;6.32;4.30;;;14.70;90.20;;;;;;5062524;28;20435;-64
2022/09/24 07:10:51;;;;;;;6.80;5.20;;;14.70;90.00;;;;;;5065348;28;20221;-64
2022/09/24 07:13:20;;;;;;;5.93;4.35;;;14.80;88.70;;;;;;5070977;28;20466;-63
2022/09/24 07:15:48;;;;;;;5.77;4.50;;;14.90;87.90;;;;;;5070555;28;20197;-64
2022/09/24 07:18:17;;;;;;;7.57;5.07;;;14.90;88.00;;;;;;5066789;28;20456;-64
2022/09/24 07:20:44;;;;;;;8.55;4.60;;;15.00;89.00;;;;;;5069132;28;20966;-65
2022/09/24 07:23:13;;;;;;;5.67;4.27;;;15.00;90.10;;;;;;5070718;28;20221;-64
2022/09/24 07:25:40;;;;;;;5.22;4.68;;;15.00;90.10;;;;;;5070529;28;20493;-63
2022/09/24 07:28:09;;;;;;;5.57;4.20;;;15.00;90.10;;;;;;5068931;28;20190;-63
2022/09/24 07:30:37;;;;;;;7.13;5.50;;;15.00;89.20;;;;;;5069655;28;20447;-63
2022/09/24 07:33:06;;;;;;;5.53;4.95;;;15.10;89.60;;;;;;5054395;28;20531;-66
2022/09/24 07:35:34;;;;;;;6.60;5.23;;;15.10;90.00;;;;;;5045168;28;20261;-68
2022/09/24 07:38:06;;;;;;;8.80;4.37;;;15.10;90.60;;;;;;5058340;28;20498;-63
2022/09/24 07:40:35;;;;;;;5.03;3.93;;;15.20;91.00;;;;;;5066618;28;20765;-64
2022/09/24 07:43:02;;;;;;;7.87;5.67;;;15.20;91.10;;;;;;5068766;28;21264;-66
2022/09/24 07:45:30;;;;;;;7.37;4.73;;;15.20;91.10;;;;;;5069750;28;20456;-63
2022/09/24 07:47:59;;;;;;;5.17;4.10;;;15.30;91.30;;;;;;5070430;28;20465;-63
2022/09/24 07:50:27;;;;;;;4.63;3.90;;;15.30;91.30;;;;;;5070108;28;20859;-63
2022/09/24 07:52:55;;;;;;;6.43;3.80;;;15.30;91.10;;;;;;5069637;28;20440;-64
2022/09/24 07:55:23;;;;;;;5.40;4.20;;;15.40;91.20;;;;;;5069523;28;20440;-64
2022/09/24 07:57:53;;;;;;;5.83;4.43;;;15.40;91.40;;;;;;5068230;28;20528;-64
2022/09/24 08:00:23;;;;;;;6.07;4.23;;;15.50;91.90;;;;;;5065882;28;20464;-64
2022/09/24 08:02:55;;;;;;;5.30;4.03;;;15.50;92.10;;;;;;5069823;28;20529;-63
2022/09/24 08:05:22;;;;;;;7.17;4.30;;;15.60;92.10;;;;;;5069695;28;20489;-64
2022/09/24 08:07:53;;;;;;;8.60;4.60;;;15.60;92.40;;;;;;5065398;28;20551;-63
2022/09/24 08:10:21;;;;;;;6.07;5.20;;;15.60;92.40;;;;;;5069804;28;20442;-64
2022/09/24 08:12:48;;;;;;;5.30;4.73;;;15.60;92.40;;;;;;5067855;28;20835;-64
2022/09/24 08:15:18;;;;;;;5.93;4.63;;;15.60;92.30;;;;;;5064626;28;20440;-63
2022/09/24 08:17:45;;;;;;;5.20;4.40;;;15.70;92.10;;;;;;5069002;28;20436;-63
2022/09/24 08:20:13;;;;;;;6.00;5.17;;;15.70;91.90;;;;;;5069930;28;20485;-64
2022/09/24 08:22:39;;;;;;;8.80;5.13;;;15.70;91.90;;;;;;5069032;28;20553;-64
2022/09/24 08:25:07;;;;;;;6.93;4.30;;;15.70;91.70;;;;;;5068316;28;20894;-64
2022/09/24 08:27:35;;;;;;;6.47;4.37;;;15.70;91.60;;;;;;5070757;28;21015;-63
2022/09/24 08:30:03;;;;;;;8.13;5.20;;;15.60;91.50;;;;;;5069737;28;20531;-63
2022/09/24 08:32:31;;;;;;;6.93;5.20;;;15.60;91.60;;;;;;5069514;28;20436;-63
2022/09/24 08:34:58;;;;;;;8.83;4.80;;;15.60;91.80;;;;;;5069274;28;20493;-63
2022/09/24 08:37:27;;;;;;;6.77;5.67;;;15.60;91.80;;;;;;5066612;28;20448;-65
2022/09/24 08:39:54;;;;;;;7.80;5.80;;;15.60;91.90;;;;;;5067290;28;20456;-64
2022/09/24 08:42:36;;;;;;;5.50;4.90;;;15.60;91.60;;;;;;5060303;28;20479;-67
2022/09/24 08:47:55;;;;;;;7.60;6.67;;;15.70;92.30;;;;;;5067900;28;21030;-63
2022/09/24 08:50:27;;;;;;;7.20;5.27;;;15.70;91.70;;;;;;5068791;28;20980;-68
2022/09/24 08:53:12;;;;;;;5.93;5.33;;;15.80;91.70;;;;;;5070198;28;20474;-63
2022/09/24 08:55:42;;;;;;;10.03;4.80;;;15.80;91.70;;;;;;5066982;28;20447;-63
2022/09/24 08:58:26;;;;;;;7.37;5.10;;;15.90;91.90;;;;;;5069762;28;21367;-63
2022/09/24 09:01:01;;;;;;;6.50;5.40;;;15.90;92.00;;;;;;5064877;28;20858;-64
2022/09/24 09:03:36;;;;;;;7.10;5.30;;;16.00;91.80;;;;;;5068871;28;20498;-63
2022/09/24 09:06:10;;;;;;;6.10;4.93;;;16.00;92.00;;;;;;5062224;28;20990;-63
2022/09/24 09:08:44;;;;;;;6.47;5.80;;;16.00;92.00;;;;;;5071378;28;20489;-63
2022/09/24 09:11:15;;;;;;;5.10;4.37;;;16.10;92.10;;;;;;5069420;28;20854;-63
2022/09/24 09:13:46;;;;;;;6.10;5.50;;;16.10;92.20;;;;;;5074480;28;20444;-63
2022/09/24 09:16:25;;;;;;;5.83;4.43;;;16.10;91.90;;;;;;5074138;28;20436;-64
2022/09/24 09:19:00;;;;;;;6.47;4.80;;;16.00;91.00;;;;;;5072668;28;22085;-64
2022/09/24 09:21:32;;;;;;;7.53;4.50;;;16.00;91.40;;;;;;5071669;28;20950;-64
2022/09/24 09:24:02;;;;;;;5.03;3.93;;;16.10;91.80;;;;;;5069930;28;20977;-63
2022/09/24 09:26:28;;;;;;;6.73;3.97;;;16.10;91.90;;;;;;5071850;28;20535;-63
2022/09/24 09:28:59;;;;;;;5.10;4.00;;;16.10;92.00;;;;;;5072862;28;20471;-64
2022/09/24 09:31:37;;;;;;;5.40;4.13;;;16.10;92.30;;;;;;5072313;28;20440;-63
2022/09/24 09:34:30;;;;;;;4.77;3.70;;;16.10;92.20;;;;;;5071390;28;20638;-63
2022/09/24 09:37:07;;;;;;;5.20;4.33;;;16.20;92.20;;;;;;5072022;28;20447;-63
2022/09/24 09:39:44;;;;;;;5.83;5.07;;;16.30;91.30;;;;;;5073672;28;20916;-63
2022/09/24 09:42:28;;;;;;;5.60;5.00;;;16.40;91.60;;;;;;5071554;28;20531;-62
2022/09/24 09:44:57;;;;;;;12.07;3.90;;;16.50;91.80;;;;;;5071004;28;20912;-65
2022/09/24 09:47:39;;;;;;;5.80;3.90;;;16.60;91.70;;;;;;5072990;28;20965;-63
2022/09/24 09:50:15;;;;;;;5.93;4.37;;;16.80;91.80;;;;;;5069640;28;20456;-64
2022/09/24 09:52:42;;;;;;;4.47;3.40;;;16.90;91.60;;;;;;5066809;28;20475;-63
2022/09/24 09:55:21;;;;;;;6.63;4.33;;;17.00;91.20;;;;;;5071542;28;20448;-63
2022/09/24 09:57:48;;;;;;;4.17;3.10;;;17.10;91.30;;;;;;5072726;28;20862;-64
2022/09/24 10:00:26;;;;;;;3.90;3.00;;;17.20;90.60;;;;;;5072655;28;20443;-64
2022/09/24 10:02:54;;;;;;;3.70;3.03;;;17.20;90.00;;;;;;5071212;28;20487;-63
2022/09/24 10:05:27;;;;;;;48.87;17.90;;;17.30;90.00;;;;;;5069565;28;21014;-67
2022/09/24 10:07:56;;;;;;;142.93;47.60;;;17.30;89.80;;;;;;5070340;28;20899;-63
2022/09/24 10:10:25;;;;;;;134.07;42.30;;;17.30;90.00;;;;;;5071186;28;20441;-63
2022/09/24 10:12:54;;;;;;;35.13;11.10;;;17.40;90.00;;;;;;5071913;28;20940;-64
2022/09/24 10:15:23;;;;;;;8.50;4.60;;;17.40;89.60;;;;;;5069650;28;20447;-64
2022/09/24 10:17:53;;;;;;;9.93;5.13;;;17.30;88.60;;;;;;5072619;28;20937;-63
2022/09/24 10:20:26;;;;;;;50.63;20.53;;;17.40;88.50;;;;;;5069752;28;20524;-64
2022/09/24 10:22:57;;;;;;;8.27;3.97;;;17.40;89.00;;;;;;5069543;28;20472;-63
2022/09/24 10:25:27;;;;;;;27.57;11.70;;;17.40;88.50;;;;;;5070668;28;20519;-64
2022/09/24 10:30:32;;;;;;;7.80;4.10;;;17.40;88.30;;;;;;5071311;28;20811;-64
2022/09/24 10:30:52;;;;;;;4.40;3.30;;;17.40;87.70;;;;;;5066759;28;20439;-64
2022/09/24 10:33:19;;;;;;;4.23;3.10;;;17.40;87.10;;;;;;5069190;28;20440;-64
2022/09/24 10:35:48;;;;;;;6.50;3.00;;;17.40;87.00;;;;;;5069559;28;20538;-64
2022/09/24 10:38:17;;;;;;;4.80;3.07;;;17.40;86.30;;;;;;5069678;28;20747;-65
2022/09/24 10:40:45;;;;;;;3.90;2.57;;;17.40;86.50;;;;;;5071666;28;20443;-64
2022/09/24 10:43:17;;;;;;;4.23;3.23;;;17.40;86.50;;;;;;5072024;28;20977;-63
2022/09/24 10:46:14;;;;;;;6.47;3.70;;;17.50;86.40;;;;;;5067049;28;20841;-64
2022/09/24 10:48:45;;;;;;;4.43;3.47;;;17.60;87.60;;;;;;5067321;28;20928;-64
2022/09/24 10:51:29;;;;;;;5.20;3.23;;;17.60;88.10;;;;;;5069152;28;20527;-63
2022/09/24 10:54:08;;;;;;;5.80;4.80;;;17.70;89.10;;;;;;5067599;28;20455;-63
2022/09/24 10:56:38;;;;;;;6.73;3.50;;;17.80;89.10;;;;;;5070622;28;20530;-64
2022/09/24 10:59:22;;;;;;;3.90;3.20;;;17.80;88.90;;;;;;5070497;28;20524;-64
2022/09/24 11:02:01;;;;;;;3.43;3.13;;;17.90;89.00;;;;;;5069789;28;20982;-63
2022/09/24 11:04:42;;;;;;;3.57;2.97;;;17.90;87.50;;;;;;5066264;28;20519;-63
2022/09/24 11:07:51;;;;;;;6.80;2.83;;;17.90;86.30;;;;;;5070556;28;20931;-67
2022/09/24 11:10:30;;;;;;;4.30;3.07;;;17.90;86.20;;;;;;5059881;28;21159;-64
2022/09/24 11:13:10;;;;;;;4.73;2.80;;;18.00;85.30;;;;;;5069527;28;20469;-64
2022/09/24 11:16:11;;;;;;;4.13;2.90;;;18.00;84.90;;;;;;5069321;28;20498;-63
2022/09/24 11:18:50;;;;;;;4.57;3.37;;;18.00;85.40;;;;;;5068731;28;20498;-64
2022/09/24 11:21:29;;;;;;;3.13;2.60;;;18.00;86.30;;;;;;5068080;28;20443;-63
2022/09/24 11:24:21;;;;;;;4.07;2.30;;;18.10;86.60;;;;;;5069511;28;20557;-63
2022/09/24 11:27:00;;;;;;;4.93;2.90;;;18.20;86.80;;;;;;5070001;28;20511;-64
2022/09/24 11:29:41;;;;;;;3.60;2.80;;;18.30;86.40;;;;;;5068338;28;20442;-63
2022/09/24 11:32:16;;;;;;;4.20;2.63;;;18.60;86.60;;;;;;5066139;28;20524;-63
2022/09/24 11:35:04;;;;;;;4.00;2.70;;;19.00;87.10;;;;;;5069321;28;20539;-63
2022/09/24 11:37:52;;;;;;;4.37;2.63;;;19.40;85.00;;;;;;5067256;28;20426;-64
2022/09/24 11:40:45;;;;;;;3.17;2.73;;;19.60;81.80;;;;;;5066792;28;20453;-64
2022/09/24 11:43:34;;;;;;;3.83;3.20;;;19.80;80.50;;;;;;5068732;28;20489;-64
2022/09/24 11:46:15;;;;;;;4.23;3.10;;;20.20;81.60;;;;;;5068611;28;20847;-64
2022/09/24 11:49:01;;;;;;;3.27;2.20;;;20.50;79.60;;;;;;5069443;28;20548;-63
2022/09/24 11:51:38;;;;;;;4.00;2.90;;;20.60;76.30;;;;;;5068138;28;20448;-64
2022/09/24 11:54:13;;;;;;;5.23;3.70;;;20.80;76.10;;;;;;5067068;28;20494;-63
2022/09/24 11:56:46;;;;;;;3.93;2.40;;;21.10;75.70;;;;;;5069102;28;20869;-64
2022/09/24 11:59:19;;;;;;;3.37;2.57;;;21.10;73.70;;;;;;5068685;28;20447;-64
2022/09/24 12:01:50;;;;;;;3.23;2.50;;;21.10;73.40;;;;;;5069602;28;20988;-64
2022/09/24 12:04:25;;;;;;;3.00;2.30;;;21.10;73.50;;;;;;5068236;28;20915;-64
2022/09/24 12:06:57;;;;;;;4.17;2.67;;;21.10;73.00;;;;;;5066862;28;20451;-64
2022/09/24 12:09:30;;;;;;;4.57;2.97;;;21.00;73.00;;;;;;5069193;28;20891;-64
2022/09/24 12:12:06;;;;;;;4.60;3.00;;;21.10;74.10;;;;;;5068438;28;20531;-65
2022/09/24 12:14:44;;;;;;;3.47;2.60;;;21.20;74.20;;;;;;5069410;28;20906;-65
2022/09/24 12:17:18;;;;;;;2.60;1.87;;;21.30;74.10;;;;;;5067486;28;20443;-63
2022/09/24 12:19:52;;;;;;;3.67;2.20;;;21.70;73.80;;;;;;5069019;28;20531;-64
2022/09/24 12:22:21;;;;;;;3.20;2.03;;;21.80;69.90;;;;;;5068982;28;21080;-64
2022/09/24 12:24:52;;;;;;;3.00;1.93;;;21.90;68.70;;;;;;5069802;28;20492;-63
2022/09/24 12:27:25;;;;;;;2.50;1.80;;;21.80;66.70;;;;;;5069044;28;20535;-65
2022/09/24 12:32:56;;;;;;;3.00;1.87;;;21.50;66.30;;;;;;5069696;28;20793;-63
2022/09/24 12:35:36;;;;;;;3.20;2.00;;;21.30;65.70;;;;;;5068847;28;20530;-65
2022/09/24 12:38:08;;;;;;;3.23;1.40;;;21.20;66.50;;;;;;5066783;28;20463;-64
2022/09/24 12:41:01;;;;;;;3.40;2.13;;;21.10;66.50;;;;;;5063909;28;20440;-63
2022/09/24 12:43:34;;;;;;;5.17;2.93;;;21.00;66.80;;;;;;5070401;28;20995;-63
2022/09/24 12:46:03;;;;;;;3.33;2.33;;;20.90;65.80;;;;;;5070158;28;20435;-64
2022/09/24 12:48:34;;;;;;;5.03;2.90;;;20.80;66.00;;;;;;5071937;28;21004;-66
2022/09/24 12:51:04;;;;;;;3.00;1.97;;;20.70;67.30;;;;;;5066744;28;20457;-63
2022/09/24 12:53:35;;;;;;;4.27;2.70;;;20.60;67.00;;;;;;5067119;28;20522;-64
2022/09/24 12:56:05;;;;;;;4.27;2.27;;;20.60;67.50;;;;;;5070859;28;20478;-65
2022/09/24 12:58:38;;;;;;;4.63;1.70;;;20.50;67.10;;;;;;5069512;28;20515;-64
2022/09/24 13:01:27;;;;;;;3.10;2.03;;;20.40;67.00;;;;;;5071199;28;20482;-64
2022/09/24 13:04:06;;;;;;;2.73;1.70;;;20.30;67.60;;;;;;5066832;28;20476;-65
2022/09/24 13:06:35;;;;;;;2.80;1.83;;;20.20;68.40;;;;;;5069150;28;20427;-64
2022/09/24 13:09:04;;;;;;;3.43;2.07;;;20.20;68.00;;;;;;5068263;28;20524;-64
2022/09/24 13:11:35;;;;;;;3.13;2.20;;;20.10;68.30;;;;;;5070420;28;20942;-63
2022/09/24 13:14:20;;;;;;;4.83;2.17;;;20.10;68.40;;;;;;5070087;28;20487;-64
2022/09/24 13:16:50;;;;;;;3.17;2.13;;;20.00;68.90;;;;;;5071169;28;20541;-63